Spabunker 51 — ECNA — position and weather

sailwx.info

Track history (hours):
 
Tides and Currents Weather Stations Pressure Air Temp Water Temp Dewpoint Dewpoint Depression Visibility Wind Speed Wind Dir Waves Ship Positions

Spabunker 51

Last reported at 2014-Dec-22 21:28 UTC. Time now 2014-Dec-23 03:41 UTC.
Position N 36°09' W 005°26'.

Length 84 m; draft 5.8 m.

Type: Ship (hazmat cat A). MMSI: 224322240.

Date/timePositionNaut miles runAvg speedWind from/ knotsBaromVisibWave heightAir tempDewpointWater temp
2014-Dec-22 21:28N 36°09' W 005°26'0 0.0
2014-Dec-22 12:32N 36°09' W 005°26'0 0.0
2014-Dec-22 11:31N 36°09' W 005°26'0 0.0
2014-Dec-21 10:09N 36°09' W 005°26'3 5.2
2014-Dec-21 09:32N 36°06' W 005°25'0 0.0
2014-Dec-21 08:30N 36°06' W 005°25'0 0.1
2014-Dec-21 07:29N 36°06' W 005°25'2 1.1
2014-Dec-21 05:31N 36°08' W 005°25'1 0.2
2014-Dec-20 23:33N 36°09' W 005°26'0 0.0
2014-Dec-20 22:28N 36°09' W 005°26'0 0.0
2014-Dec-20 21:03N 36°09' W 005°26'0 0.0
2014-Dec-20 20:30N 36°09' W 005°26'0 0.0
2014-Dec-20 19:33N 36°09' W 005°26'0 0.0
2014-Dec-20 18:32N 36°09' W 005°26'0 0.0
2014-Dec-20 17:25N 36°09' W 005°26'0 0.0
2014-Dec-20 15:05N 36°09' W 005°26'0 0.0
2014-Dec-20 14:13N 36°09' W 005°26'0 0.0
2014-Dec-20 13:19N 36°09' W 005°26'0 0.0
2014-Dec-20 11:30N 36°09' W 005°26'0 0.0
2014-Dec-20 10:33N 36°09' W 005°26'0 0.0
2014-Dec-20 09:33N 36°09' W 005°26'0 0.0
2014-Dec-20 08:29N 36°09' W 005°26'0 0.0
2014-Dec-20 07:28N 36°09' W 005°26'0 0.0
2014-Dec-20 06:32N 36°09' W 005°26'0 0.1
2014-Dec-20 05:18N 36°09' W 005°26'4 5.3
2014-Dec-20 04:32N 36°05' W 005°24'0 0.0
2014-Dec-20 03:33N 36°05' W 005°24'0 0.1
2014-Dec-20 02:33N 36°05' W 005°24'0 0.1
2014-Dec-20 01:33N 36°05' W 005°24'0 0.0
2014-Dec-20 00:33N 36°05' W 005°24'0 0.0
2014-Dec-19 23:33N 36°05' W 005°24'0 0.0
2014-Dec-19 22:33N 36°05' W 005°24'0 0.1
2014-Dec-19 21:33N 36°05' W 005°24'0 0.2
2014-Dec-19 20:33N 36°05' W 005°24'2 0.7
2014-Dec-19 17:30N 36°07' W 005°25'2 0.4
2014-Dec-19 13:09N 36°09' W 005°26'0 0.0
2014-Dec-19 08:16N 36°09' W 005°26'3 1.2
2014-Dec-19 06:14N 36°11' W 005°24'0 0.0
2014-Dec-19 05:32N 36°11' W 005°24'0 0.0
2014-Dec-19 04:23N 36°11' W 005°24'0 0.0
2014-Dec-19 02:07N 36°11' W 005°24'0 0.0
2014-Dec-19 00:30N 36°11' W 005°24'0 0.0
2014-Dec-18 23:32N 36°11' W 005°24'0 0.0
2014-Dec-18 22:25N 36°11' W 005°24'1 0.8
2014-Dec-18 21:12N 36°10' W 005°24'2 3.2
2014-Dec-18 20:28N 36°07' W 005°24'2 2.3
2014-Dec-18 19:33N 36°05' W 005°24'0 0.1
2014-Dec-18 18:33N 36°05' W 005°24'0 0.1
2014-Dec-18 17:33N 36°05' W 005°24'0 0.1
2014-Dec-18 16:32N 36°05' W 005°24'0 0.0
2014-Dec-18 15:33N 36°05' W 005°24'0 0.0
2014-Dec-18 14:33N 36°05' W 005°24'0 0.0
2014-Dec-18 13:33N 36°05' W 005°24'0 0.0
2014-Dec-18 12:33N 36°05' W 005°24'0 0.1
2014-Dec-18 11:33N 36°05' W 005°24'0 0.0
2014-Dec-18 10:33N 36°05' W 005°24'3 2.7
2014-Dec-18 09:24N 36°08' W 005°25'1 0.1
2014-Dec-18 03:22N 36°09' W 005°26'3 1.5
2014-Dec-18 01:32N 36°06' W 005°25'0 0.0
2014-Dec-18 00:25N 36°06' W 005°25'0 0.0
2014-Dec-17 23:31N 36°06' W 005°24'0 0.1
2014-Dec-17 22:33N 36°06' W 005°24'0 0.0
2014-Dec-17 21:33N 36°06' W 005°24'0 0.1
2014-Dec-17 20:33N 36°06' W 005°24'0 0.0
2014-Dec-17 19:33N 36°06' W 005°24'1 0.5
2014-Dec-17 18:33N 36°06' W 005°25'0 0.0
2014-Dec-17 17:32N 36°06' W 005°25'0 0.1
2014-Dec-17 16:32N 36°06' W 005°25'0 0.0
2014-Dec-17 15:27N 36°06' W 005°25'0 0.1
2014-Dec-17 14:33N 36°06' W 005°25'0 0.1
2014-Dec-17 13:32N 36°06' W 005°25'0 0.2
2014-Dec-17 12:33N 36°06' W 005°25'0 0.1
2014-Dec-17 11:33N 36°06' W 005°25'0 0.0
2014-Dec-17 10:33N 36°06' W 005°25'0 0.0
2014-Dec-17 09:33N 36°06' W 005°25'0 0.0
2014-Dec-17 08:33N 36°06' W 005°25'0 0.1
2014-Dec-17 07:33N 36°06' W 005°25'1 1.2
2014-Dec-17 06:33N 36°07' W 005°25'4 3.8
2014-Dec-17 05:33N 36°11' W 005°24'0 0.0
2014-Dec-17 04:33N 36°11' W 005°24'0 0.0
2014-Dec-17 03:33N 36°11' W 005°24'0 0.0
2014-Dec-17 02:33N 36°11' W 005°24'0 0.0
2014-Dec-17 01:33N 36°11' W 005°24'0 0.0
2014-Dec-17 00:33N 36°11' W 005°24'0 0.0
2014-Dec-16 23:33N 36°11' W 005°24'0 0.0
2014-Dec-16 22:33N 36°11' W 005°24'0 0.0
2014-Dec-16 21:33N 36°11' W 005°24'0 0.0
2014-Dec-16 20:33N 36°11' W 005°24'0 0.0
2014-Dec-16 19:32N 36°11' W 005°24'1 0.4
2014-Dec-16 18:06N 36°10' W 005°25'2 0.7
2014-Dec-16 15:32N 36°09' W 005°26'0 0.0
2014-Dec-15 22:32N 36°09' W 005°26'0 0.1
2014-Dec-15 21:20N 36°09' W 005°26'0 0.0
2014-Dec-15 20:33N 36°09' W 005°26'0 0.0
2014-Dec-15 19:32N 36°09' W 005°26'0 0.0
2014-Dec-15 18:29N 36°09' W 005°26'0 0.0
2014-Dec-15 17:33N 36°09' W 005°26'0 0.0
2014-Dec-15 16:31N 36°09' W 005°26'0 0.0
2014-Dec-15 10:33N 36°09' W 005°26'1 1.1
2014-Dec-15 09:33N 36°08' W 005°25'0 0.0
2014-Dec-15 08:33N 36°08' W 005°25'0 0.0
2014-Dec-15 07:33N 36°08' W 005°25'0 0.0
2014-Dec-15 06:33N 36°08' W 005°25'0 0.0
2014-Dec-15 05:33N 36°08' W 005°25'0 0.0
2014-Dec-15 04:33N 36°08' W 005°25'1 0.9
2014-Dec-15 03:33N 36°09' W 005°26'0 0.0
2014-Dec-15 02:33N 36°09' W 005°26'0 0.0
2014-Dec-15 01:33N 36°09' W 005°26'0 0.0
2014-Dec-15 00:09N 36°09' W 005°26'0 0.0
2014-Dec-14 23:33N 36°09' W 005°26'0 0.0
2014-Dec-14 22:30N 36°09' W 005°26'0 0.0
2014-Dec-14 21:33N 36°09' W 005°26'0 0.0
2014-Dec-14 20:33N 36°09' W 005°26'0 0.0
2014-Dec-14 19:33N 36°09' W 005°26'0 0.0
2014-Dec-14 18:33N 36°09' W 005°26'0 0.0
2014-Dec-14 17:33N 36°09' W 005°26'0 0.0
2014-Dec-14 16:33N 36°09' W 005°26'0 0.0
2014-Dec-14 15:33N 36°09' W 005°26'0 0.0
2014-Dec-14 14:33N 36°09' W 005°26'0 0.0
2014-Dec-14 13:33N 36°09' W 005°26'0 0.0
2014-Dec-14 12:33N 36°09' W 005°26'0 0.0
2014-Dec-14 11:33N 36°09' W 005°26'0 0.0
2014-Dec-14 10:33N 36°09' W 005°26'1 0.4
2014-Dec-14 08:32N 36°10' W 005°25'0 0.0
2014-Dec-14 07:19N 36°10' W 005°25'0 0.0
2014-Dec-14 06:30N 36°10' W 005°25'1 0.7
2014-Dec-14 05:19N 36°09' W 005°26'0 0.0
2014-Dec-14 03:20N 36°09' W 005°26'0 0.0
2014-Dec-14 02:33N 36°09' W 005°26'0 0.0
2014-Dec-14 01:27N 36°09' W 005°26'0 0.0
2014-Dec-14 00:24N 36°09' W 005°26'0 0.0
2014-Dec-13 23:30N 36°09' W 005°26'0 0.0
2014-Dec-13 22:33N 36°09' W 005°26'0 0.0
2014-Dec-13 21:28N 36°09' W 005°26'0 0.0
2014-Dec-13 20:33N 36°09' W 005°26'0 0.0
2014-Dec-13 19:33N 36°09' W 005°26'0 0.0
2014-Dec-13 18:32N 36°09' W 005°26'0 0.0
2014-Dec-13 17:32N 36°09' W 005°26'0 0.0
2014-Dec-13 16:32N 36°09' W 005°26'0 0.0
2014-Dec-13 01:32N 36°09' W 005°26'  
Track history (hours):
 
Tides and Currents Weather Stations Pressure Air Temp Water Temp Dewpoint Dewpoint Depression Visibility Wind Speed Wind Dir Waves Ship Positions

Spabunker 51

Last reported at 2014-Dec-22 21:28 UTC. Time now 2014-Dec-23 03:41 UTC.
Position N 36°09' W 005°26'.

Length 84 m; draft 5.8 m.

Type: Ship (hazmat cat A). MMSI: 224322240.

Date/timePositionNaut miles runAvg speedWind from/ knotsBaromVisibWave heightAir tempDewpointWater temp
2014-Dec-22 21:28N 36°09' W 005°26'0 0.0
2014-Dec-22 12:32N 36°09' W 005°26'0 0.0
2014-Dec-22 11:31N 36°09' W 005°26'0 0.0
2014-Dec-21 10:09N 36°09' W 005°26'3 5.2
2014-Dec-21 09:32N 36°06' W 005°25'0 0.0
2014-Dec-21 08:30N 36°06' W 005°25'0 0.1
2014-Dec-21 07:29N 36°06' W 005°25'2 1.1
2014-Dec-21 05:31N 36°08' W 005°25'1 0.2
2014-Dec-20 23:33N 36°09' W 005°26'0 0.0
2014-Dec-20 22:28N 36°09' W 005°26'0 0.0
2014-Dec-20 21:03N 36°09' W 005°26'0 0.0
2014-Dec-20 20:30N 36°09' W 005°26'0 0.0
2014-Dec-20 19:33N 36°09' W 005°26'0 0.0
2014-Dec-20 18:32N 36°09' W 005°26'0 0.0
2014-Dec-20 17:25N 36°09' W 005°26'0 0.0
2014-Dec-20 15:05N 36°09' W 005°26'0 0.0
2014-Dec-20 14:13N 36°09' W 005°26'0 0.0
2014-Dec-20 13:19N 36°09' W 005°26'0 0.0
2014-Dec-20 11:30N 36°09' W 005°26'0 0.0
2014-Dec-20 10:33N 36°09' W 005°26'0 0.0
2014-Dec-20 09:33N 36°09' W 005°26'0 0.0
2014-Dec-20 08:29N 36°09' W 005°26'0 0.0
2014-Dec-20 07:28N 36°09' W 005°26'0 0.0
2014-Dec-20 06:32N 36°09' W 005°26'0 0.1
2014-Dec-20 05:18N 36°09' W 005°26'4 5.3
2014-Dec-20 04:32N 36°05' W 005°24'0 0.0
2014-Dec-20 03:33N 36°05' W 005°24'0 0.1
2014-Dec-20 02:33N 36°05' W 005°24'0 0.1
2014-Dec-20 01:33N 36°05' W 005°24'0 0.0
2014-Dec-20 00:33N 36°05' W 005°24'0 0.0
2014-Dec-19 23:33N 36°05' W 005°24'0 0.0
2014-Dec-19 22:33N 36°05' W 005°24'0 0.1
2014-Dec-19 21:33N 36°05' W 005°24'0 0.2
2014-Dec-19 20:33N 36°05' W 005°24'2 0.7
2014-Dec-19 17:30N 36°07' W 005°25'2 0.4
2014-Dec-19 13:09N 36°09' W 005°26'0 0.0
2014-Dec-19 08:16N 36°09' W 005°26'3 1.2
2014-Dec-19 06:14N 36°11' W 005°24'0 0.0
2014-Dec-19 05:32N 36°11' W 005°24'0 0.0
2014-Dec-19 04:23N 36°11' W 005°24'0 0.0
2014-Dec-19 02:07N 36°11' W 005°24'0 0.0
2014-Dec-19 00:30N 36°11' W 005°24'0 0.0
2014-Dec-18 23:32N 36°11' W 005°24'0 0.0
2014-Dec-18 22:25N 36°11' W 005°24'1 0.8
2014-Dec-18 21:12N 36°10' W 005°24'2 3.2
2014-Dec-18 20:28N 36°07' W 005°24'2 2.3
2014-Dec-18 19:33N 36°05' W 005°24'0 0.1
2014-Dec-18 18:33N 36°05' W 005°24'0 0.1
2014-Dec-18 17:33N 36°05' W 005°24'0 0.1
2014-Dec-18 16:32N 36°05' W 005°24'0 0.0
2014-Dec-18 15:33N 36°05' W 005°24'0 0.0
2014-Dec-18 14:33N 36°05' W 005°24'0 0.0
2014-Dec-18 13:33N 36°05' W 005°24'0 0.0
2014-Dec-18 12:33N 36°05' W 005°24'0 0.1
2014-Dec-18 11:33N 36°05' W 005°24'0 0.0
2014-Dec-18 10:33N 36°05' W 005°24'3 2.7
2014-Dec-18 09:24N 36°08' W 005°25'1 0.1
2014-Dec-18 03:22N 36°09' W 005°26'3 1.5
2014-Dec-18 01:32N 36°06' W 005°25'0 0.0
2014-Dec-18 00:25N 36°06' W 005°25'0 0.0
2014-Dec-17 23:31N 36°06' W 005°24'0 0.1
2014-Dec-17 22:33N 36°06' W 005°24'0 0.0
2014-Dec-17 21:33N 36°06' W 005°24'0 0.1
2014-Dec-17 20:33N 36°06' W 005°24'0 0.0
2014-Dec-17 19:33N 36°06' W 005°24'1 0.5
2014-Dec-17 18:33N 36°06' W 005°25'0 0.0
2014-Dec-17 17:32N 36°06' W 005°25'0 0.1
2014-Dec-17 16:32N 36°06' W 005°25'0 0.0
2014-Dec-17 15:27N 36°06' W 005°25'0 0.1
2014-Dec-17 14:33N 36°06' W 005°25'0 0.1
2014-Dec-17 13:32N 36°06' W 005°25'0 0.2
2014-Dec-17 12:33N 36°06' W 005°25'0 0.1
2014-Dec-17 11:33N 36°06' W 005°25'0 0.0
2014-Dec-17 10:33N 36°06' W 005°25'0 0.0
2014-Dec-17 09:33N 36°06' W 005°25'0 0.0
2014-Dec-17 08:33N 36°06' W 005°25'0 0.1
2014-Dec-17 07:33N 36°06' W 005°25'1 1.2
2014-Dec-17 06:33N 36°07' W 005°25'4 3.8
2014-Dec-17 05:33N 36°11' W 005°24'0 0.0
2014-Dec-17 04:33N 36°11' W 005°24'0 0.0
2014-Dec-17 03:33N 36°11' W 005°24'0 0.0
2014-Dec-17 02:33N 36°11' W 005°24'0 0.0
2014-Dec-17 01:33N 36°11' W 005°24'0 0.0
2014-Dec-17 00:33N 36°11' W 005°24'0 0.0
2014-Dec-16 23:33N 36°11' W 005°24'0 0.0
2014-Dec-16 22:33N 36°11' W 005°24'0 0.0
2014-Dec-16 21:33N 36°11' W 005°24'0 0.0
2014-Dec-16 20:33N 36°11' W 005°24'0 0.0
2014-Dec-16 19:32N 36°11' W 005°24'1 0.4
2014-Dec-16 18:06N 36°10' W 005°25'2 0.7
2014-Dec-16 15:32N 36°09' W 005°26'0 0.0
2014-Dec-15 22:32N 36°09' W 005°26'0 0.1
2014-Dec-15 21:20N 36°09' W 005°26'0 0.0
2014-Dec-15 20:33N 36°09' W 005°26'0 0.0
2014-Dec-15 19:32N 36°09' W 005°26'0 0.0
2014-Dec-15 18:29N 36°09' W 005°26'0 0.0
2014-Dec-15 17:33N 36°09' W 005°26'0 0.0
2014-Dec-15 16:31N 36°09' W 005°26'0 0.0
2014-Dec-15 10:33N 36°09' W 005°26'1 1.1
2014-Dec-15 09:33N 36°08' W 005°25'0 0.0
2014-Dec-15 08:33N 36°08' W 005°25'0 0.0
2014-Dec-15 07:33N 36°08' W 005°25'0 0.0
2014-Dec-15 06:33N 36°08' W 005°25'0 0.0
2014-Dec-15 05:33N 36°08' W 005°25'0 0.0
2014-Dec-15 04:33N 36°08' W 005°25'1 0.9
2014-Dec-15 03:33N 36°09' W 005°26'0 0.0
2014-Dec-15 02:33N 36°09' W 005°26'0 0.0
2014-Dec-15 01:33N 36°09' W 005°26'0 0.0
2014-Dec-15 00:09N 36°09' W 005°26'0 0.0
2014-Dec-14 23:33N 36°09' W 005°26'0 0.0
2014-Dec-14 22:30N 36°09' W 005°26'0 0.0
2014-Dec-14 21:33N 36°09' W 005°26'0 0.0
2014-Dec-14 20:33N 36°09' W 005°26'0 0.0
2014-Dec-14 19:33N 36°09' W 005°26'0 0.0
2014-Dec-14 18:33N 36°09' W 005°26'0 0.0
2014-Dec-14 17:33N 36°09' W 005°26'0 0.0
2014-Dec-14 16:33N 36°09' W 005°26'0 0.0
2014-Dec-14 15:33N 36°09' W 005°26'0 0.0
2014-Dec-14 14:33N 36°09' W 005°26'0 0.0
2014-Dec-14 13:33N 36°09' W 005°26'0 0.0
2014-Dec-14 12:33N 36°09' W 005°26'0 0.0
2014-Dec-14 11:33N 36°09' W 005°26'0 0.0
2014-Dec-14 10:33N 36°09' W 005°26'1 0.4
2014-Dec-14 08:32N 36°10' W 005°25'0 0.0
2014-Dec-14 07:19N 36°10' W 005°25'0 0.0
2014-Dec-14 06:30N 36°10' W 005°25'1 0.7
2014-Dec-14 05:19N 36°09' W 005°26'0 0.0
2014-Dec-14 03:20N 36°09' W 005°26'0 0.0
2014-Dec-14 02:33N 36°09' W 005°26'0 0.0
2014-Dec-14 01:27N 36°09' W 005°26'0 0.0
2014-Dec-14 00:24N 36°09' W 005°26'0 0.0
2014-Dec-13 23:30N 36°09' W 005°26'0 0.0
2014-Dec-13 22:33N 36°09' W 005°26'0 0.0
2014-Dec-13 21:28N 36°09' W 005°26'0 0.0
2014-Dec-13 20:33N 36°09' W 005°26'0 0.0
2014-Dec-13 19:33N 36°09' W 005°26'0 0.0
2014-Dec-13 18:32N 36°09' W 005°26'0 0.0
2014-Dec-13 17:32N 36°09' W 005°26'0 0.0
2014-Dec-13 16:32N 36°09' W 005°26'0 0.0
2014-Dec-13 01:32N 36°09' W 005°26'  

Dump ship's entire track history